首页
METAR-TAF:

METAR-TAF

机场 :

山胡桃, 北卡罗来纳州, 美国

纬度: 35-44-32N, 经度: 081-22-56W, 海拔: 362米

当前天气观测

该预报发布于7分钟前的13:18 UTC
风速6节,风向南转西南
温度 23°C
湿度 100%
气压 1017 hPa
能見度: 16.1公里
阴天层高于600英尺

METAR: KHKY 171318Z 21006KT 10SM OVC006 23/23 A3003 RMK AO2 T02330228 $

时间: 09:25 (13:25 UTC)

预报

该预报发布于1小时和26分钟前的11:59 UTC
预报有效从17日的 12点(UTC)到 18日的 12点(UTC)
风速4节,风向西南
能見度: 8.0公里
阴天层高于500英尺
轻雾
短暂存在
从 17日的 12点(UTC)到 17日的 14点(UTC)
能見度: 3.2公里
阴天层高于200英尺
轻雾
从 17日的 1400点(UTC)
风速5节,风向西南
能見度: 10公里
散云层高于5000英尺
多云层高于25000英尺
从 17日的 2100点(UTC)
风速7节,风向西
能見度: 10公里
多云层高于5000英尺
几率 30%
从 17日的 21点(UTC)到 18日的 02点(UTC)
能見度: 6.4公里
阴天层高于2500英尺, 积雨云.
雷暴, 小雨
从 18日的 0200点(UTC)
风速4节,风向北转西北
能見度: 10公里
散云层高于6000英尺
从 18日的 0900点(UTC)
风速4节,风向西北
能見度: 10公里
散云层高于24000英尺

TAF: KHKY 171159Z 1712/1812 22004KT 5SM BR OVC005 TEMPO 1712/1714 2SM BR OVC002 FM171400 23005KT P6SM SCT050 BKN250 FM172100 26007KT P6SM BKN050 PROB30 1721/1802 4SM -TSRA OVC025CB FM180200 34004KT P6SM SCT060 FM180900 31004KT P6SM SCT240

超过4000个机场的气象观测和天气预报(METAR&TAF报告)。

可查询的气象台以黄色和红色小点在地图上表示。

将鼠标移到小点上方,可查看气象台名称。

然后点击查看天气观测和预报。

如需切换地图:点击带黑十字的绿色按钮放大地图;点击带横线的绿色按钮缩小地图;或者点击绿色箭头查看邻近地区的地图。


METAR-TAF: